Time;durP1;ratioP1;P1;durP2;ratioP2;P2;SDS_P1;SDS_P2;PMS_P1;PMS_P2;Temp;Humidity;BMP_temperature;BMP_pressure;BME280_temperature;BME280_humidity;BME280_pressure;Samples;Min_cycle;Max_cycle;Signal;HPM_P1;HPM_P2
2022/10/07 00:00:51;;;;;;;16.57;2.90;;;12.30;99.90;;;;;;5064729;28;20224;-83
2022/10/07 00:03:19;;;;;;;8.80;2.10;;;12.30;99.90;;;;;;5052458;28;20301;-83
2022/10/07 00:05:46;;;;;;;13.33;2.60;;;12.30;99.90;;;;;;5051657;28;20245;-80
2022/10/07 00:08:15;;;;;;;13.50;2.70;;;12.30;99.90;;;;;;5034917;28;20505;-78
2022/10/07 00:10:43;;;;;;;10.03;2.70;;;12.30;99.90;;;;;;5052210;28;20625;-81
2022/10/07 00:13:10;;;;;;;6.90;2.57;;;12.30;99.90;;;;;;5052541;28;20621;-81
2022/10/07 00:15:37;;;;;;;11.20;2.50;;;12.30;99.90;;;;;;5055943;28;20236;-82
2022/10/07 00:18:04;;;;;;;9.73;2.33;;;12.30;99.90;;;;;;5070812;28;20209;-80
2022/10/07 00:20:31;;;;;;;11.93;2.57;;;12.30;99.90;;;;;;5075498;28;20228;-82
2022/10/07 00:22:58;;;;;;;10.93;2.67;;;12.30;99.90;;;;;;5076201;28;20197;-84
2022/10/07 00:25:26;;;;;;;14.00;2.50;;;12.30;99.90;;;;;;5065202;28;20305;-79
2022/10/07 00:27:53;;;;;;;14.83;3.00;;;12.30;99.90;;;;;;5055368;28;20209;-81
2022/10/07 00:30:20;;;;;;;12.10;2.80;;;12.30;99.90;;;;;;5038601;28;20206;-80
2022/10/07 00:32:47;;;;;;;14.77;2.73;;;12.30;99.90;;;;;;5055387;28;20205;-82
2022/10/07 00:35:14;;;;;;;12.23;3.13;;;12.30;99.90;;;;;;5056069;28;20285;-81
2022/10/07 00:37:41;;;;;;;19.23;3.90;;;12.30;99.90;;;;;;5055597;28;20206;-83
2022/10/07 00:40:12;;;;;;;14.50;2.83;;;12.30;99.90;;;;;;5055292;28;20290;-80
2022/10/07 00:42:41;;;;;;;15.17;2.90;;;12.30;99.90;;;;;;5055991;28;20209;-82
2022/10/07 00:45:14;;;;;;;11.97;2.60;;;12.30;99.90;;;;;;5054304;28;20218;-82
2022/10/07 00:47:43;;;;;;;17.00;3.33;;;12.40;99.90;;;;;;5054784;28;20197;-80
2022/10/07 00:50:14;;;;;;;14.00;2.87;;;12.40;99.90;;;;;;5055260;28;20202;-79
2022/10/07 00:52:45;;;;;;;13.90;2.57;;;12.40;99.90;;;;;;5055772;28;20194;-83
2022/10/07 00:55:17;;;;;;;16.60;3.13;;;12.40;99.90;;;;;;5054947;28;20221;-80
2022/10/07 00:57:47;;;;;;;8.90;2.73;;;12.40;99.90;;;;;;5055379;28;20284;-81
2022/10/07 01:00:14;;;;;;;11.93;3.23;;;12.40;99.90;;;;;;5073068;28;20209;-83
2022/10/07 01:02:41;;;;;;;15.70;3.77;;;12.40;99.90;;;;;;5074807;28;20189;-77
2022/10/07 01:05:13;;;;;;;14.07;3.90;;;12.40;99.90;;;;;;5056785;28;20336;-82
2022/10/07 01:07:40;;;;;;;10.90;3.30;;;12.40;99.90;;;;;;5054207;28;20206;-79
2022/10/07 01:10:10;;;;;;;18.07;3.40;;;12.50;99.90;;;;;;5054888;28;20582;-82
2022/10/07 01:12:56;;;;;;;10.73;2.50;;;12.50;99.90;;;;;;5054860;28;20224;-80
2022/10/07 01:15:34;;;;;;;14.53;2.90;;;12.50;99.90;;;;;;5053965;28;20280;-80
2022/10/07 01:18:08;;;;;;;15.73;2.97;;;12.50;99.90;;;;;;5054510;28;20610;-82
2022/10/07 01:20:44;;;;;;;14.40;3.30;;;12.50;99.90;;;;;;5054441;28;20205;-80
2022/10/07 01:23:43;;;;;;;11.70;3.13;;;12.50;99.90;;;;;;5053860;28;20186;-80
2022/10/07 01:26:47;;;;;;;15.20;3.37;;;12.50;99.90;;;;;;5046285;28;20800;-80
2022/10/07 01:29:17;;;;;;;14.37;2.70;;;12.40;99.90;;;;;;5053546;28;20277;-80
2022/10/07 01:31:47;;;;;;;12.93;3.03;;;12.40;99.90;;;;;;5054702;28;20198;-79
2022/10/07 01:34:15;;;;;;;20.37;3.80;;;12.40;99.90;;;;;;5054212;28;20233;-79
2022/10/07 01:36:50;;;;;;;17.53;4.03;;;12.50;99.90;;;;;;5054046;28;20194;-80
2022/10/07 01:39:23;;;;;;;20.10;4.77;;;12.60;99.90;;;;;;5054052;28;20202;-79
2022/10/07 01:41:52;;;;;;;13.60;2.80;;;12.60;99.90;;;;;;5054269;28;20193;-81
2022/10/07 01:44:20;;;;;;;13.60;3.70;;;12.50;99.90;;;;;;5063073;28;20212;-81
2022/10/07 01:46:47;;;;;;;13.23;3.10;;;12.50;99.90;;;;;;5075384;28;20225;-82
2022/10/07 01:49:13;;;;;;;19.83;3.10;;;12.50;99.90;;;;;;5060139;28;20206;-80
2022/10/07 01:51:42;;;;;;;17.77;3.33;;;12.50;99.90;;;;;;5059586;28;20590;-81
2022/10/07 01:54:26;;;;;;;13.63;3.43;;;12.50;99.90;;;;;;5059220;28;20206;-81
2022/10/07 01:57:10;;;;;;;11.87;3.00;;;12.50;99.90;;;;;;5053064;28;20344;-80
2022/10/07 02:00:04;;;;;;;14.87;3.10;;;12.50;99.90;;;;;;5056205;28;20209;-82
2022/10/07 02:03:00;;;;;;;20.13;3.27;;;12.50;99.90;;;;;;5062318;28;20197;-82
2022/10/07 02:05:38;;;;;;;10.53;2.73;;;12.50;99.90;;;;;;5074354;28;20300;-82
2022/10/07 02:08:22;;;;;;;14.97;3.40;;;12.50;99.90;;;;;;5074103;28;20190;-81
2022/10/07 02:11:01;;;;;;;15.93;3.23;;;12.50;99.90;;;;;;5073754;28;20276;-82
2022/10/07 02:13:36;;;;;;;14.67;3.27;;;12.50;99.90;;;;;;5073442;28;20193;-80
2022/10/07 02:16:10;;;;;;;19.57;3.20;;;12.50;99.90;;;;;;5073567;28;20221;-82
2022/10/07 02:18:39;;;;;;;12.00;2.67;;;12.60;99.90;;;;;;5073340;28;20205;-79
2022/10/07 02:21:09;;;;;;;17.60;4.37;;;12.50;99.90;;;;;;5056320;28;20324;-78
2022/10/07 02:23:39;;;;;;;18.50;3.70;;;12.60;99.90;;;;;;5052840;28;20271;-77
2022/10/07 02:26:10;;;;;;;14.83;2.90;;;12.60;99.90;;;;;;5052082;28;20245;-77
2022/10/07 02:28:41;;;;;;;15.30;3.97;;;12.50;99.90;;;;;;5052474;28;20209;-79
2022/10/07 02:31:11;;;;;;;17.83;3.80;;;12.60;99.90;;;;;;5052842;28;20205;-77
2022/10/07 02:33:41;;;;;;;18.60;3.63;;;12.50;99.90;;;;;;5051611;28;20208;-78
2022/10/07 02:36:14;;;;;;;13.00;2.87;;;12.50;99.90;;;;;;5051751;28;20263;-77
2022/10/07 02:38:41;;;;;;;14.57;3.20;;;12.50;99.90;;;;;;5052645;28;20232;-80
2022/10/07 02:41:14;;;;;;;13.80;2.90;;;12.50;99.90;;;;;;5051678;28;20208;-78
2022/10/07 02:44:03;;;;;;;13.43;3.53;;;12.50;99.90;;;;;;5052530;28;20255;-78
2022/10/07 02:46:37;;;;;;;11.83;2.80;;;12.40;99.90;;;;;;5051790;28;20226;-79
2022/10/07 02:49:08;;;;;;;11.30;2.70;;;12.40;99.90;;;;;;5052540;28;20232;-79
2022/10/07 02:51:39;;;;;;;12.27;3.13;;;12.40;99.90;;;;;;5052223;28;20583;-78
2022/10/07 02:54:06;;;;;;;15.07;3.60;;;12.40;99.90;;;;;;5051231;28;20194;-78
2022/10/07 02:56:36;;;;;;;14.80;3.03;;;12.40;99.90;;;;;;5052590;28;20308;-79
2022/10/07 02:59:07;;;;;;;14.63;3.17;;;12.40;99.90;;;;;;5052233;28;20307;-79
2022/10/07 03:01:39;;;;;;;16.13;3.80;;;12.40;99.90;;;;;;5051559;28;20200;-79
2022/10/07 03:04:06;;;;;;;15.13;3.67;;;12.50;99.90;;;;;;5051907;28;20346;-79
2022/10/07 03:06:35;;;;;;;13.80;3.20;;;12.50;99.90;;;;;;5052351;28;20213;-79
2022/10/07 03:09:03;;;;;;;13.70;3.53;;;12.50;99.90;;;;;;5051262;28;20234;-79
2022/10/07 03:11:30;;;;;;;20.60;3.23;;;12.50;99.90;;;;;;5052118;28;20186;-81
2022/10/07 03:13:57;;;;;;;19.87;4.40;;;12.50;99.90;;;;;;5052371;28;20206;-79
2022/10/07 03:16:25;;;;;;;16.33;3.47;;;12.50;99.90;;;;;;5050769;28;20835;-80
2022/10/07 03:18:53;;;;;;;14.03;3.63;;;12.60;99.90;;;;;;5051769;28;20210;-78
2022/10/07 03:21:19;;;;;;;16.50;3.10;;;12.60;99.90;;;;;;5051291;28;20216;-78
2022/10/07 03:23:51;;;;;;;19.33;3.60;;;12.60;99.90;;;;;;5051671;28;20197;-78
2022/10/07 03:26:18;;;;;;;14.03;3.30;;;12.60;99.90;;;;;;5051964;28;20238;-78
2022/10/07 03:28:46;;;;;;;15.33;3.00;;;12.50;99.90;;;;;;5050773;28;20641;-79
2022/10/07 03:31:14;;;;;;;17.33;4.07;;;12.50;99.90;;;;;;5051785;28;20202;-78
2022/10/07 03:33:42;;;;;;;11.03;3.10;;;12.50;99.90;;;;;;5051887;28;20208;-77
2022/10/07 03:36:09;;;;;;;16.77;3.20;;;12.50;99.90;;;;;;5070432;28;20213;-78
2022/10/07 03:38:37;;;;;;;14.97;3.60;;;12.50;99.90;;;;;;5071930;28;20203;-79
2022/10/07 03:41:05;;;;;;;17.50;3.17;;;12.50;99.90;;;;;;5071916;28;20622;-78
2022/10/07 03:43:32;;;;;;;16.93;3.27;;;12.50;99.90;;;;;;5069582;28;20266;-80
2022/10/07 03:46:01;;;;;;;14.73;3.53;;;12.50;99.90;;;;;;5072112;28;20219;-78
2022/10/07 03:48:28;;;;;;;12.53;3.30;;;12.50;99.90;;;;;;5066393;28;20300;-79
2022/10/07 03:50:56;;;;;;;12.43;2.87;;;12.50;99.90;;;;;;5055752;28;20228;-79
2022/10/07 03:53:24;;;;;;;18.67;2.97;;;12.40;99.90;;;;;;5055554;28;20661;-79
2022/10/07 03:55:51;;;;;;;13.83;2.53;;;12.40;99.90;;;;;;5055872;28;20209;-82
2022/10/07 03:58:19;;;;;;;16.50;3.17;;;12.40;99.90;;;;;;5054646;28;20641;-79
2022/10/07 04:00:46;;;;;;;18.00;3.87;;;12.40;99.90;;;;;;5055778;28;20498;-80
2022/10/07 04:03:15;;;;;;;14.07;3.10;;;12.40;99.90;;;;;;5055807;28;20519;-82
2022/10/07 04:05:42;;;;;;;21.03;3.53;;;12.40;99.90;;;;;;5055160;28;20225;-79
2022/10/07 04:08:16;;;;;;;14.83;3.37;;;12.40;99.90;;;;;;5055140;28;20208;-79
2022/10/07 04:10:43;;;;;;;11.37;2.67;;;12.40;99.90;;;;;;5054583;28;20748;-80
2022/10/07 04:13:10;;;;;;;17.83;4.23;;;12.40;99.90;;;;;;5054931;28;20201;-79
2022/10/07 04:15:37;;;;;;;16.67;3.03;;;12.40;99.90;;;;;;5055407;28;20218;-79
2022/10/07 04:18:04;;;;;;;20.87;3.97;;;12.40;99.90;;;;;;5064138;28;20209;-80
2022/10/07 04:20:31;;;;;;;17.57;3.60;;;12.40;99.90;;;;;;5075161;28;20288;-80
2022/10/07 04:22:58;;;;;;;18.00;3.60;;;12.40;99.90;;;;;;5058940;28;20673;-79
2022/10/07 04:25:37;;;;;;;22.07;3.53;;;12.40;99.90;;;;;;5054718;28;20285;-80
2022/10/07 04:28:05;;;;;;;16.00;3.70;;;12.40;99.90;;;;;;5055115;28;20198;-81
2022/10/07 04:30:37;;;;;;;15.93;3.13;;;12.40;99.90;;;;;;5055158;28;20217;-80
2022/10/07 04:33:06;;;;;;;15.90;2.77;;;12.40;99.90;;;;;;5054630;28;20371;-79
2022/10/07 04:35:37;;;;;;;14.43;2.87;;;12.40;99.90;;;;;;5054732;28;20212;-80
2022/10/07 04:38:06;;;;;;;17.67;3.17;;;12.40;99.90;;;;;;5055003;28;20206;-81
2022/10/07 04:40:38;;;;;;;20.53;4.00;;;12.40;99.90;;;;;;5054599;28;20202;-80
2022/10/07 04:43:22;;;;;;;13.73;3.17;;;12.30;99.90;;;;;;5074882;28;20511;-79
2022/10/07 04:45:51;;;;;;;17.43;3.23;;;12.30;99.90;;;;;;5074270;28;20205;-79
2022/10/07 04:48:19;;;;;;;11.40;2.60;;;12.30;99.90;;;;;;5074762;28;20280;-79
2022/10/07 04:50:46;;;;;;;13.37;2.73;;;12.30;99.90;;;;;;5073624;28;20201;-79
2022/10/07 04:53:15;;;;;;;11.67;2.67;;;12.30;99.90;;;;;;5074203;28;20200;-78
2022/10/07 04:55:46;;;;;;;15.37;3.33;;;12.30;99.90;;;;;;5066716;28;20281;-78
2022/10/07 04:58:13;;;;;;;11.13;2.77;;;12.20;99.90;;;;;;5053919;28;20222;-79
2022/10/07 05:00:45;;;;;;;11.87;2.87;;;12.20;99.90;;;;;;5053921;28;20231;-80
2022/10/07 05:03:13;;;;;;;18.10;3.70;;;12.20;99.90;;;;;;5054505;28;20807;-80
2022/10/07 05:05:44;;;;;;;11.57;2.60;;;12.20;99.90;;;;;;5054109;28;20603;-78
2022/10/07 05:08:11;;;;;;;17.37;3.77;;;12.20;99.90;;;;;;5053794;28;20217;-81
2022/10/07 05:10:39;;;;;;;10.97;2.80;;;12.20;99.90;;;;;;5054841;28;20298;-79
2022/10/07 05:13:11;;;;;;;16.23;3.40;;;12.10;99.90;;;;;;5054532;28;20202;-79
2022/10/07 05:15:38;;;;;;;15.97;3.57;;;12.10;99.90;;;;;;5065643;28;20241;-79
2022/10/07 05:18:06;;;;;;;23.07;3.50;;;12.20;99.90;;;;;;5076727;28;20189;-81
2022/10/07 05:20:34;;;;;;;18.83;4.03;;;12.20;99.90;;;;;;5081284;28;20288;-82
2022/10/07 05:23:01;;;;;;;11.13;3.20;;;12.10;99.90;;;;;;5075259;28;20504;-79
2022/10/07 05:25:28;;;;;;;20.33;3.67;;;12.10;99.90;;;;;;5062375;28;20646;-82
2022/10/07 05:27:54;;;;;;;15.00;3.13;;;12.10;99.90;;;;;;5054953;28;20226;-82
2022/10/07 05:30:23;;;;;;;15.07;3.13;;;12.10;99.90;;;;;;5054737;28;20598;-82
2022/10/07 05:32:50;;;;;;;15.27;4.20;;;12.10;99.90;;;;;;5054518;28;20678;-82
2022/10/07 05:35:17;;;;;;;17.57;3.57;;;12.10;99.90;;;;;;5054355;28;20232;-81
2022/10/07 05:37:43;;;;;;;13.67;3.10;;;12.10;99.90;;;;;;5054766;28;20567;-81
2022/10/07 05:40:11;;;;;;;16.03;4.00;;;12.00;99.90;;;;;;5054292;28;20209;-82
2022/10/07 05:42:38;;;;;;;10.27;3.40;;;12.00;99.90;;;;;;5053606;28;20194;-80
2022/10/07 05:45:06;;;;;;;10.27;3.20;;;12.00;99.90;;;;;;5054436;28;20289;-84
2022/10/07 05:47:34;;;;;;;17.33;3.07;;;12.00;99.90;;;;;;5054235;28;20216;-80
2022/10/07 05:50:01;;;;;;;16.33;4.30;;;12.00;99.90;;;;;;5053713;28;20197;-79
2022/10/07 05:52:29;;;;;;;10.63;3.40;;;12.00;99.90;;;;;;5053915;28;20233;-81
2022/10/07 05:54:56;;;;;;;11.87;2.60;;;12.00;99.90;;;;;;5053981;28;20208;-81
2022/10/07 05:57:23;;;;;;;10.73;2.87;;;12.00;99.90;;;;;;5053261;28;20536;-81
2022/10/07 05:59:50;;;;;;;12.60;3.17;;;12.00;99.90;;;;;;5053942;28;20576;-81
2022/10/07 06:02:18;;;;;;;16.90;3.30;;;12.00;99.90;;;;;;5053644;28;20202;-79
2022/10/07 06:04:48;;;;;;;14.07;3.40;;;12.00;99.90;;;;;;5053194;28;20205;-79
2022/10/07 06:07:15;;;;;;;14.97;3.83;;;12.00;99.90;;;;;;5053587;28;20727;-79
2022/10/07 06:15:11;;;;;;;20.70;4.20;;;12.00;99.90;;;;;;5053259;28;20633;-78
2022/10/07 06:17:42;;;;;;;14.87;3.30;;;12.00;99.90;;;;;;5052918;28;20194;-81
2022/10/07 06:20:13;;;;;;;15.60;3.63;;;12.00;99.90;;;;;;5053225;28;20202;-81
2022/10/07 06:22:39;;;;;;;15.57;3.90;;;12.00;99.90;;;;;;5053332;28;20206;-81
2022/10/07 06:25:08;;;;;;;11.87;3.57;;;12.00;99.90;;;;;;5052716;28;20191;-81
2022/10/07 06:27:34;;;;;;;12.83;3.10;;;12.00;99.90;;;;;;5068121;28;20236;-82
2022/10/07 06:30:02;;;;;;;11.33;3.17;;;12.00;99.90;;;;;;5072104;28;20224;-80
2022/10/07 06:32:31;;;;;;;12.67;3.10;;;12.00;99.90;;;;;;5065195;28;20248;-80
2022/10/07 06:34:58;;;;;;;17.13;4.10;;;12.00;99.90;;;;;;5052545;28;20474;-81
2022/10/07 06:37:29;;;;;;;10.83;3.97;;;12.00;99.90;;;;;;5052149;28;20224;-79
2022/10/07 06:39:56;;;;;;;12.97;3.57;;;12.00;99.90;;;;;;5052019;28;20617;-80
2022/10/07 06:42:23;;;;;;;13.20;3.40;;;12.00;99.90;;;;;;5052464;28;20353;-78
2022/10/07 06:44:52;;;;;;;12.57;3.33;;;12.00;99.90;;;;;;5052178;28;20217;-79
2022/10/07 06:47:19;;;;;;;13.83;3.50;;;12.00;99.90;;;;;;5052133;28;20222;-79
2022/10/07 06:49:46;;;;;;;13.70;3.23;;;12.10;99.90;;;;;;5064421;28;20201;-80
2022/10/07 06:52:13;;;;;;;12.63;3.23;;;12.10;99.90;;;;;;5072644;28;20585;-82
2022/10/07 06:54:41;;;;;;;17.47;3.47;;;12.10;99.90;;;;;;5064816;28;20209;-82
2022/10/07 06:57:08;;;;;;;15.47;3.80;;;12.10;99.90;;;;;;5072316;28;20229;-81
2022/10/07 06:59:36;;;;;;;16.80;3.83;;;12.10;99.90;;;;;;5068760;28;20240;-85
2022/10/07 07:02:03;;;;;;;9.03;3.47;;;12.10;99.90;;;;;;5072172;28;20212;-84
2022/10/07 07:04:29;;;;;;;14.77;3.57;;;12.20;99.90;;;;;;5067191;28;20209;-81
2022/10/07 07:06:56;;;;;;;13.87;3.30;;;12.20;99.90;;;;;;5067180;28;20221;-79
2022/10/07 07:09:23;;;;;;;18.67;4.03;;;12.20;99.90;;;;;;5072747;28;20212;-80
2022/10/07 07:11:52;;;;;;;17.67;4.30;;;12.20;99.90;;;;;;5072628;28;20197;-83
2022/10/07 07:14:19;;;;;;;11.60;3.47;;;12.20;99.90;;;;;;5072298;28;20236;-84
2022/10/07 07:16:46;;;;;;;19.33;4.10;;;12.20;99.90;;;;;;5060155;28;20241;-81
2022/10/07 07:19:14;;;;;;;15.93;4.17;;;12.30;99.90;;;;;;5052776;28;20507;-82
2022/10/07 07:21:42;;;;;;;17.20;4.17;;;12.40;99.90;;;;;;5051747;28;20198;-80
2022/10/07 07:24:09;;;;;;;17.33;3.37;;;12.50;99.90;;;;;;5053038;28;20229;-83
2022/10/07 07:26:39;;;;;;;16.03;3.40;;;12.60;99.90;;;;;;5057557;28;20248;-82
2022/10/07 07:29:07;;;;;;;9.70;3.30;;;12.70;99.90;;;;;;5072709;28;20739;-81
2022/10/07 07:31:36;;;;;;;18.43;4.27;;;12.70;99.90;;;;;;5073211;28;20561;-83
2022/10/07 07:34:06;;;;;;;18.43;3.73;;;12.80;99.90;;;;;;5073033;28;20585;-83
2022/10/07 07:36:35;;;;;;;19.50;4.03;;;12.90;99.90;;;;;;5065390;28;20496;-84
2022/10/07 07:39:04;;;;;;;16.83;3.27;;;13.00;99.90;;;;;;5052694;28;20245;-80
2022/10/07 07:41:33;;;;;;;9.93;3.07;;;13.00;99.90;;;;;;5052634;28;20194;-82
2022/10/07 07:44:04;;;;;;;15.10;3.80;;;13.00;99.90;;;;;;5052864;28;20206;-78
2022/10/07 07:46:36;;;;;;;12.67;3.57;;;13.10;99.90;;;;;;5052517;28;20285;-79
2022/10/07 07:49:03;;;;;;;13.73;3.43;;;13.20;99.90;;;;;;5051887;28;20197;-78
2022/10/07 07:51:30;;;;;;;13.83;3.50;;;13.30;99.90;;;;;;5052367;28;20205;-83
2022/10/07 07:53:58;;;;;;;13.53;3.67;;;13.30;99.90;;;;;;5051863;28;20208;-83
2022/10/07 07:56:27;;;;;;;12.87;3.80;;;13.40;99.90;;;;;;5051293;28;20234;-82
2022/10/07 07:58:55;;;;;;;16.50;3.73;;;13.40;99.90;;;;;;5051950;28;20503;-77
2022/10/07 08:01:21;;;;;;;12.13;3.10;;;13.50;99.90;;;;;;5052436;28;20208;-80
2022/10/07 08:03:50;;;;;;;13.23;4.05;;;13.60;99.90;;;;;;5051371;28;20216;-78
2022/10/07 08:06:18;;;;;;;10.98;3.60;;;13.60;99.90;;;;;;5050960;28;20859;-79
2022/10/07 08:08:45;;;;;;;15.00;4.05;;;13.70;99.90;;;;;;5052322;28;20225;-77
2022/10/07 08:11:14;;;;;;;10.93;3.40;;;13.70;99.90;;;;;;5052284;28;20598;-81
2022/10/07 08:13:41;;;;;;;13.33;3.30;;;13.70;99.90;;;;;;5052026;28;20285;-83
2022/10/07 08:16:13;;;;;;;12.13;2.80;;;13.70;99.90;;;;;;5051576;28;20237;-78
2022/10/07 08:18:40;;;;;;;13.27;2.97;;;13.70;99.90;;;;;;5051642;28;20222;-80
2022/10/07 08:21:09;;;;;;;16.60;3.53;;;13.70;99.90;;;;;;5051728;28;20225;-82
2022/10/07 08:23:36;;;;;;;12.37;3.50;;;13.80;99.90;;;;;;5050944;28;20310;-77
2022/10/07 08:26:04;;;;;;;13.00;3.20;;;13.80;99.90;;;;;;5051575;28;20229;-79
2022/10/07 08:28:32;;;;;;;14.10;3.63;;;13.80;99.90;;;;;;5051169;28;20249;-78
2022/10/07 08:31:02;;;;;;;10.27;2.90;;;13.80;99.90;;;;;;5050383;28;20194;-78
2022/10/07 08:33:32;;;;;;;10.23;2.83;;;13.80;99.90;;;;;;5051521;28;20352;-78
2022/10/07 08:36:00;;;;;;;15.50;3.30;;;13.90;99.90;;;;;;5054871;28;20229;-79
2022/10/07 08:38:31;;;;;;;16.60;3.47;;;14.00;99.90;;;;;;5055169;28;20496;-79
2022/10/07 08:41:10;;;;;;;15.20;3.67;;;14.10;99.90;;;;;;5054876;28;20198;-79
2022/10/07 08:43:39;;;;;;;11.68;2.92;;;14.20;99.90;;;;;;5054807;28;20285;-79
2022/10/07 08:46:11;;;;;;;12.00;3.10;;;14.30;99.90;;;;;;5055005;28;20232;-80
2022/10/07 08:48:40;;;;;;;16.13;3.58;;;14.40;99.90;;;;;;5073570;28;20209;-79
2022/10/07 08:51:17;;;;;;;11.68;3.03;;;14.60;99.90;;;;;;5083776;28;20215;-82
2022/10/07 08:53:48;;;;;;;13.75;3.25;;;14.70;99.90;;;;;;5077865;28;20223;-78
2022/10/07 08:56:17;;;;;;;18.92;4.28;;;14.80;99.90;;;;;;5057774;28;20190;-79
2022/10/07 08:58:54;;;;;;;14.35;3.33;;;14.80;99.90;;;;;;5061560;28;20759;-84
2022/10/07 09:01:31;;;;;;;11.20;3.17;;;14.90;99.90;;;;;;5055768;28;20213;-85
2022/10/07 09:04:09;;;;;;;20.05;4.20;;;14.90;99.90;;;;;;5070015;28;20289;-83
2022/10/07 09:06:41;;;;;;;14.32;3.45;;;14.90;99.90;;;;;;5058037;28;20201;-83
2022/10/07 09:09:15;;;;;;;12.95;3.03;;;14.90;99.90;;;;;;5074217;28;20194;-78
2022/10/07 09:11:44;;;;;;;10.35;2.72;;;14.90;99.90;;;;;;5072825;28;20212;-80
2022/10/07 09:14:20;;;;;;;11.00;2.50;;;15.00;99.90;;;;;;5077145;28;20244;-84
2022/10/07 09:16:50;;;;;;;16.17;3.83;;;15.10;99.90;;;;;;5054778;28;20245;-82
2022/10/07 09:19:26;;;;;;;12.07;3.22;;;15.20;99.90;;;;;;5054557;28;20284;-80
2022/10/07 09:22:00;;;;;;;10.75;2.78;;;15.30;99.90;;;;;;5054365;28;20478;-77
2022/10/07 09:24:31;;;;;;;7.95;2.55;;;15.30;99.90;;;;;;5059734;28;20197;-83
2022/10/07 09:27:00;;;;;;;12.15;3.15;;;15.40;99.90;;;;;;5054197;28;20206;-79
2022/10/07 09:29:30;;;;;;;12.27;3.20;;;15.50;99.90;;;;;;5072365;28;20258;-79
2022/10/07 09:31:57;;;;;;;12.50;2.60;;;15.60;99.90;;;;;;5055865;28;20500;-85
2022/10/07 09:34:26;;;;;;;11.20;3.30;;;15.80;99.90;;;;;;5056041;28;20206;-77
2022/10/07 09:37:13;;;;;;;12.13;3.05;;;15.90;99.90;;;;;;5053303;28;20198;-79
2022/10/07 09:39:42;;;;;;;11.25;3.05;;;16.00;99.90;;;;;;5053449;28;20201;-78
2022/10/07 09:42:16;;;;;;;13.57;3.70;;;16.00;99.90;;;;;;5054578;28;20704;-77
2022/10/07 09:44:50;;;;;;;10.27;3.75;;;16.00;99.90;;;;;;5073755;28;20196;-79
2022/10/07 09:47:22;;;;;;;8.95;3.15;;;16.00;99.90;;;;;;5073824;28;20220;-78
2022/10/07 09:49:50;;;;;;;19.92;3.45;;;16.00;99.90;;;;;;5093220;28;20287;-78
2022/10/07 09:52:21;;;;;;;14.63;3.65;;;15.90;99.90;;;;;;5083447;28;20206;-78
2022/10/07 09:54:52;;;;;;;13.75;3.45;;;15.90;99.90;;;;;;5094096;28;20200;-76
2022/10/07 09:57:29;;;;;;;9.85;3.13;;;16.00;99.90;;;;;;5092597;28;20212;-77
2022/10/07 10:00:17;;;;;;;14.32;3.80;;;15.90;99.90;;;;;;5077541;28;20220;-84
2022/10/07 10:02:48;;;;;;;14.65;3.47;;;15.90;99.90;;;;;;5072511;28;20202;-79
2022/10/07 10:05:22;;;;;;;12.75;3.47;;;15.90;99.90;;;;;;5071214;28;20232;-81
2022/10/07 10:07:54;;;;;;;12.88;3.53;;;15.90;99.90;;;;;;5062781;28;20212;-78
2022/10/07 10:10:25;;;;;;;19.52;4.32;;;16.00;99.90;;;;;;5068517;28;20256;-78
2022/10/07 10:12:54;;;;;;;21.35;4.43;;;16.10;99.90;;;;;;5059324;28;20213;-77
2022/10/07 10:15:28;;;;;;;15.88;3.70;;;16.00;99.90;;;;;;5072927;28;20316;-78
2022/10/07 10:17:56;;;;;;;13.85;3.28;;;16.00;99.90;;;;;;5078279;28;20185;-77
2022/10/07 10:20:32;;;;;;;10.35;2.47;;;15.90;99.90;;;;;;5056436;28;20198;-77
2022/10/07 10:23:01;;;;;;;13.75;3.05;;;15.90;99.90;;;;;;5059012;28;20185;-78
2022/10/07 10:28:38;;;;;;;14.88;3.85;;;15.90;99.90;;;;;;5072672;28;20224;-78
2022/10/07 10:31:12;;;;;;;17.85;3.50;;;15.90;99.90;;;;;;5052177;28;20842;-81
2022/10/07 10:33:45;;;;;;;11.18;2.60;;;16.10;99.90;;;;;;5052781;28;20284;-80
2022/10/07 10:36:19;;;;;;;14.65;3.28;;;16.20;99.90;;;;;;5052607;28;20575;-78
2022/10/07 10:38:51;;;;;;;14.95;3.08;;;16.20;99.90;;;;;;5052199;28;20198;-77
2022/10/07 10:41:28;;;;;;;11.93;2.85;;;16.30;99.90;;;;;;5052351;28;20481;-79
2022/10/07 10:44:23;;;;;;;9.95;2.72;;;16.40;99.90;;;;;;5052886;28;20198;-79
2022/10/07 10:46:58;;;;;;;12.82;3.17;;;16.60;99.90;;;;;;5055229;28;20251;-79
2022/10/07 10:49:30;;;;;;;17.10;3.47;;;16.80;99.90;;;;;;5068774;28;20724;-80
2022/10/07 10:52:12;;;;;;;15.05;3.45;;;16.90;99.90;;;;;;5052308;28;20194;-78
2022/10/07 10:54:49;;;;;;;9.00;3.00;;;16.90;99.90;;;;;;5052596;28;20205;-76
2022/10/07 10:57:28;;;;;;;12.75;2.65;;;17.00;99.90;;;;;;5051791;28;20304;-79
2022/10/07 11:00:04;;;;;;;18.13;3.83;;;16.90;99.90;;;;;;5051691;28;20284;-79
2022/10/07 11:02:47;;;;;;;15.98;3.50;;;16.90;99.90;;;;;;5053014;28;20189;-77
2022/10/07 11:05:16;;;;;;;14.18;3.33;;;16.90;99.90;;;;;;5052666;28;20212;-80
2022/10/07 11:07:49;;;;;;;13.93;3.42;;;16.80;99.90;;;;;;5052353;28;20296;-79
2022/10/07 11:10:21;;;;;;;15.98;3.38;;;16.80;99.90;;;;;;5053105;28;20190;-81
2022/10/07 11:12:55;;;;;;;18.85;3.85;;;16.70;99.90;;;;;;5052453;28;20209;-81
2022/10/07 11:15:26;;;;;;;17.63;3.53;;;16.70;99.90;;;;;;5055980;28;20565;-76
2022/10/07 11:18:00;;;;;;;13.32;3.35;;;16.60;99.90;;;;;;5072271;28;20197;-81
2022/10/07 11:20:32;;;;;;;13.77;3.10;;;16.70;99.90;;;;;;5071845;28;20205;-77
2022/10/07 11:23:08;;;;;;;15.10;3.05;;;16.80;99.90;;;;;;5065496;28;20201;-76
2022/10/07 11:25:41;;;;;;;11.10;3.30;;;17.10;99.90;;;;;;5052073;28;20485;-79
2022/10/07 11:28:16;;;;;;;15.32;3.35;;;17.20;99.90;;;;;;5051595;28;20217;-77
2022/10/07 11:30:50;;;;;;;10.57;3.13;;;17.40;99.90;;;;;;5051670;28;20193;-79
2022/10/07 11:33:23;;;;;;;9.93;2.50;;;17.60;99.90;;;;;;5051922;28;20188;-77
2022/10/07 11:35:55;;;;;;;14.35;3.30;;;17.90;99.90;;;;;;5051954;28;20504;-79
2022/10/07 11:38:27;;;;;;;11.60;3.45;;;18.00;99.90;;;;;;5057602;28;20641;-83
2022/10/07 11:40:56;;;;;;;13.60;3.90;;;17.90;99.90;;;;;;5071688;28;20201;-79
2022/10/07 11:43:28;;;;;;;14.35;3.05;;;17.90;99.90;;;;;;5071760;28;20485;-78
2022/10/07 11:45:59;;;;;;;12.57;3.03;;;17.90;99.90;;;;;;5059206;28;20609;-79
2022/10/07 11:48:33;;;;;;;18.13;3.55;;;18.00;99.90;;;;;;5051481;28;20217;-77
2022/10/07 11:51:03;;;;;;;16.83;3.17;;;18.10;99.90;;;;;;5052043;28;20205;-77
2022/10/07 11:53:35;;;;;;;14.80;3.65;;;18.00;99.90;;;;;;5051692;28;20587;-80
2022/10/07 11:56:05;;;;;;;16.50;3.42;;;18.00;99.90;;;;;;5050938;28;20683;-78
2022/10/07 11:58:36;;;;;;;11.85;3.13;;;17.80;99.90;;;;;;5051660;28;20204;-79
2022/10/07 12:01:38;;;;;;;16.05;3.60;;;17.80;99.90;;;;;;5052231;28;20190;-77
2022/10/07 12:04:25;;;;;;;15.68;3.47;;;17.80;99.90;;;;;;5052017;28;20281;-77
2022/10/07 12:07:29;;;;;;;13.25;3.80;;;17.70;99.90;;;;;;5051495;28;20688;-80
2022/10/07 12:10:17;;;;;;;15.27;2.95;;;17.60;99.90;;;;;;5054562;28;20312;-79
2022/10/07 12:12:48;;;;;;;14.20;3.13;;;17.70;99.90;;;;;;5055681;28;20281;-77
2022/10/07 12:15:37;;;;;;;11.68;3.17;;;17.80;99.90;;;;;;5060184;28;20241;-78
2022/10/07 12:18:27;;;;;;;13.57;3.30;;;17.90;99.90;;;;;;5075623;28;20350;-82
2022/10/07 12:21:00;;;;;;;13.52;3.28;;;18.00;99.90;;;;;;5065117;28;20211;-78
2022/10/07 12:23:48;;;;;;;20.17;3.53;;;18.10;99.90;;;;;;5054615;28;20197;-78
2022/10/07 12:26:45;;;;;;;12.98;2.47;;;18.20;99.90;;;;;;5071835;28;20205;-80
2022/10/07 12:29:21;;;;;;;15.27;2.88;;;18.20;99.90;;;;;;5063365;28;20222;-84
2022/10/07 12:31:50;;;;;;;12.68;2.53;;;18.10;99.90;;;;;;5055610;28;20189;-82
2022/10/07 12:34:26;;;;;;;11.95;2.53;;;18.00;99.90;;;;;;5060763;28;20215;-80
2022/10/07 12:36:53;;;;;;;14.57;2.60;;;17.90;99.90;;;;;;5075718;28;20189;-79
2022/10/07 12:39:36;;;;;;;8.00;1.95;;;18.00;99.90;;;;;;5076157;28;20594;-82
2022/10/07 12:42:07;;;;;;;13.05;3.22;;;18.00;99.90;;;;;;5075937;28;20186;-83
2022/10/07 12:44:39;;;;;;;12.57;2.72;;;18.10;99.90;;;;;;5059356;28;20198;-83
2022/10/07 12:47:14;;;;;;;8.93;2.72;;;18.10;99.90;;;;;;5055528;28;20289;-82
2022/10/07 12:49:45;;;;;;;16.60;2.83;;;18.00;99.90;;;;;;5055434;28;20209;-81
2022/10/07 12:52:18;;;;;;;15.88;3.50;;;17.90;99.90;;;;;;5055294;28;20202;-82
2022/10/07 12:54:50;;;;;;;9.25;3.08;;;17.90;99.90;;;;;;5055157;28;20237;-81
2022/10/07 12:57:21;;;;;;;14.45;3.03;;;17.80;99.90;;;;;;5055453;28;20222;-84
2022/10/07 12:59:59;;;;;;;13.68;3.55;;;17.70;99.90;;;;;;5054572;28;20190;-83
2022/10/07 13:03:03;;;;;;;13.88;3.67;;;17.60;99.90;;;;;;5065082;28;20206;-81
2022/10/07 13:06:13;;;;;;;13.60;3.42;;;17.70;99.90;;;;;;5072345;28;20204;-80
2022/10/07 13:09:21;;;;;;;14.68;3.30;;;17.70;99.90;;;;;;5059087;28;20224;-80